Angelina County Airport
KLFK : now visible

Airfield :











YOU CAN JOIN US ON...

 
LOGIN :

Register | Disclaimer

   EN    FR    IT 

 









Legend :    VFR   Marginal VFR   IFR   Intensive IFR   Very Intensive IFR
Visi :
Ceiling :
>= 8 km
>= 3000ft
5 to 8 km
1000 to 3000 ft
1500m to 5 km
500 to 1000 ft
800 to 1500m
200 to 500 ft
< 800m
< 200 ft
Symbols :   Thunderstorms  Fog  Heavy snow  Heavy precipitations  Wind > 20 kt






- Airport Elevation : 296 ft


KLFK - Angelina County

CURRENT METAR :
  • 191653Z AUTO A2998 RMK AO2 SLPNO PWINO $

EXPIRED METARs :
  • 191553Z AUTO A2998 RMK AO2 SLPNO PWINO $
  • 191453Z AUTO A2998 RMK AO2 SLPNO 51013 PWINO $

TAF KLFK
Valid from the 19 at 12:00 until the 20 at 12:00 UTC


191127Z 1912/2012 00000KT P6SM VCSH OVC002
TEMPO 1912/1915 2SM -SHRA BR OVC015
FM191500 17003KT P6SM OVC015
FM191700 19005KT P6SM VCTS BKN035CB
FM200000 19005KT P6SM SCT045 SCT100 BKN250
FM200600 16005KT P6SM BKN080
KZHU FIR / North America



MET'MAP, your aeronautical weather chart ! - Copyright ORBIFLY December 2007 - Disclaimer

ORBIFLY MET'MAP TEAM :

Programming & Development : Alexandra Zaïnal
Original concept : Baudouin d'Aumeries
Technical & hardware support : Manuel Goepfert
Assistance : Marc-Olivier Méhu




SOURCES & CREDITS :

   NOAA       Earth
Advisory